Norwegian Star — C6FR3 — position and weather

sailwx.info

Track history (hours):
 
Tides and Currents Weather Stations Pressure Air Temp Water Temp Dewpoint Dewpoint Depression Visibility Wind Speed Wind Dir Waves Ship Positions

Norwegian Star

Operator: Norwegian Cruise Line

Last reported at 2017-Oct-17 22:32 UTC. Time now 2017-Oct-18 09:16 UTC.
Position N 36°59' E 020°59'.

Type: Ship. MMSI: 311082000.

Date/timePositionNaut miles runAvg speedWind from/ knotsBaromVisibWave heightAir tempDewpointWater temp
2017-Oct-17 22:32N 36°59' E 020°59'120.0
2017-Oct-17 22:30N 36°60' E 020°59'1019.9
2017-Oct-17 22:01N 37°06' E 020°49'1020.4
2017-Oct-17 21:30N 37°14' E 020°42'1020.2
2017-Oct-17 21:01N 37°23' E 020°36'1020.4
2017-Oct-17 20:31N 37°32' E 020°30'1020.6
2017-Oct-17 20:01N 37°42' E 020°24'1020.3
2017-Oct-17 19:31N 37°51' E 020°20'1020.4
2017-Oct-17 19:00N 38°01' E 020°17'1020.3
2017-Oct-17 18:31N 38°11' E 020°14'1019.9
2017-Oct-17 18:00N 38°21' E 020°15'1019.8
2017-Oct-17 17:30N 38°31' E 020°16'1020.0
2017-Oct-17 17:01N 38°41' E 020°17'1020.0
2017-Oct-17 16:30N 38°51' E 020°17'57 5.3
2017-Oct-17 05:42N 39°47' E 019°59'316.3
2017-Oct-17 05:30N 39°50' E 019°58'1019.9
2017-Oct-17 05:00N 39°55' E 019°47'1121.6
2017-Oct-17 04:30N 40°02' E 019°37'1122.0
2017-Oct-17 04:01N 40°09' E 019°25'1121.8
2017-Oct-17 03:31N 40°17' E 019°16'1621.6
2017-Oct-17 02:46N 40°32' E 019°09'622.1
2017-Oct-17 02:30N 40°38' E 019°07'1121.9
2017-Oct-17 02:00N 40°48' E 019°03'1121.9
2017-Oct-17 01:31N 40°59' E 018°60'1322.0
2017-Oct-17 00:56N 41°11' E 018°56'1022.1
2017-Oct-17 00:30N 41°20' E 018°53'18510.0
2017-Oct-16 05:58N 43°02' E 015°24'3922.4
2017-Oct-16 04:13N 43°30' E 014°47'2122.0
2017-Oct-16 03:17N 43°46' E 014°28'821.8
2017-Oct-16 02:56N 43°51' E 014°20'1122.1
2017-Oct-16 02:27N 43°59' E 014°11'1022.4
2017-Oct-16 02:01N 44°06' E 014°01'1122.5
2017-Oct-16 01:30N 44°16' E 013°52'1122.3
2017-Oct-16 01:00N 44°25' E 013°44'1122.2
2017-Oct-16 00:30N 44°34' E 013°35'1122.3
2017-Oct-16 00:01N 44°44' E 013°28'1222.2
2017-Oct-15 23:28N 44°54' E 013°18'1022.1
2017-Oct-15 23:01N 45°01' E 013°08'1122.1
2017-Oct-15 22:30N 45°09' E 012°56'1122.0
2017-Oct-15 22:01N 45°16' E 012°45'1121.3
2017-Oct-15 21:30N 45°22' E 012°33'713.6
2017-Oct-15 21:00N 45°26' E 012°24'3 5.8
2017-Oct-15 20:30N 45°26' E 012°20'1 2.5
2017-Oct-15 20:00N 45°26' E 012°19'0 0.0
2017-Oct-15 19:30N 45°26' E 012°19'0 0.0
2017-Oct-15 19:00N 45°26' E 012°19'0 0.0
2017-Oct-15 18:30N 45°26' E 012°19'0 0.0
2017-Oct-15 18:00N 45°26' E 012°19'0 0.0
2017-Oct-15 17:30N 45°26' E 012°19'0 0.0
2017-Oct-15 16:57N 45°26' E 012°19'0 0.0
2017-Oct-15 16:30N 45°26' E 012°19'0 0.0
2017-Oct-15 16:00N 45°26' E 012°19'0 0.0
2017-Oct-15 15:30N 45°26' E 012°19'0 0.0
2017-Oct-15 15:00N 45°26' E 012°19'0 0.0
2017-Oct-15 14:00N 45°26' E 012°19'0 0.0
2017-Oct-15 13:30N 45°26' E 012°19'0 0.0
2017-Oct-15 13:00N 45°26' E 012°19'0 0.0
2017-Oct-15 12:30N 45°26' E 012°19'0 0.0
2017-Oct-15 12:00N 45°26' E 012°19'1 1.3
2017-Oct-15 11:30N 45°26' E 012°19'3 5.2
2017-Oct-15 11:00N 45°26' E 012°23'4 8.2
2017-Oct-15 10:30N 45°24' E 012°28'1 2.9
2017-Oct-15 10:00N 45°24' E 012°30'0 0.8
2017-Oct-15 09:30N 45°24' E 012°31'0 0.3
2017-Oct-15 08:59N 45°24' E 012°31'0 0.0
2017-Oct-15 08:30N 45°24' E 012°31'0 0.0
2017-Oct-15 08:00N 45°24' E 012°31'0 0.0
2017-Oct-15 07:30N 45°24' E 012°31'0 0.0
2017-Oct-15 07:00N 45°24' E 012°31'0 0.0
2017-Oct-15 06:30N 45°24' E 012°31'0 0.0
2017-Oct-15 06:00N 45°24' E 012°31'0 0.0
2017-Oct-15 05:29N 45°24' E 012°31'0 0.0
2017-Oct-15 04:59N 45°24' E 012°31'0 0.0
2017-Oct-15 04:30N 45°24' E 012°31'1 1.2
2017-Oct-15 04:00N 45°23' E 012°31'5 9.5
2017-Oct-15 03:30N 45°21' E 012°37'5 9.4
2017-Oct-15 03:00N 45°18' E 012°42'5 9.2
2017-Oct-15 02:30N 45°15' E 012°47'5 9.8
2017-Oct-15 02:00N 45°12' E 012°52'815.6
2017-Oct-15 01:30N 45°07' E 013°01'918.4
2017-Oct-15 01:00N 45°01' E 013°11'1018.8
2017-Oct-15 00:30N 44°55' E 013°22'918.4
2017-Oct-15 00:00N 44°48' E 013°28'918.6
2017-Oct-14 23:30N 44°40' E 013°36'918.7
2017-Oct-14 23:00N 44°32' E 013°43'918.6
2017-Oct-14 22:30N 44°25' E 013°51'918.5
2017-Oct-14 22:00N 44°18' E 013°59'918.7
2017-Oct-14 21:30N 44°10' E 014°07'918.1
2017-Oct-14 21:00N 44°04' E 014°16'918.5
2017-Oct-14 20:30N 43°59' E 014°27'918.5
2017-Oct-14 20:00N 43°55' E 014°38'918.6
2017-Oct-14 19:30N 43°50' E 014°50'1318.8
2017-Oct-14 18:49N 43°44' E 015°05'618.6
2017-Oct-14 18:30N 43°41' E 015°12'1118.5
2017-Oct-14 17:56N 43°36' E 015°25'220 9.0
2017-Oct-13 17:29N 40°42' E 018°26'19219.3
2017-Oct-13 07:32N 37°50' E 020°16'119.8
2017-Oct-13 07:30N 37°49' E 020°16'16511.4
2017-Oct-12 17:05N 37°17' E 023°40'216.6
2017-Oct-12 16:59N 37°19' E 023°41'816.9
2017-Oct-12 16:29N 37°27' E 023°41'817.1
2017-Oct-12 16:00N 37°36' E 023°42'816.7
2017-Oct-12 15:30N 37°44' E 023°40'816.4
2017-Oct-12 15:00N 37°51' E 023°37'510.2
2017-Oct-12 14:30N 37°56' E 023°38'0 0.5
2017-Oct-12 14:00N 37°56' E 023°38'0 0.0
2017-Oct-12 13:30N 37°56' E 023°38'0 0.0
2017-Oct-12 13:00N 37°56' E 023°38'0 0.0
2017-Oct-12 12:30N 37°56' E 023°38'0 0.0
2017-Oct-12 12:00N 37°56' E 023°38'0 0.0
2017-Oct-12 11:30N 37°56' E 023°38'0 0.0
2017-Oct-12 11:00N 37°56' E 023°38'0 0.0
2017-Oct-12 10:30N 37°56' E 023°38'0 0.0
2017-Oct-12 10:00N 37°56' E 023°38'0 0.0
2017-Oct-12 09:30N 37°56' E 023°38'0 0.0
2017-Oct-12 09:00N 37°56' E 023°38'0 0.0
2017-Oct-12 08:30N 37°56' E 023°38'0 0.0
2017-Oct-12 07:13N 37°56' E 023°38'0 0.1
2017-Oct-12 06:56N 37°56' E 023°38'0 0.0
2017-Oct-12 06:29N 37°56' E 023°38'0 0.0
2017-Oct-12 05:59N 37°56' E 023°38'0 0.0
2017-Oct-12 05:29N 37°56' E 023°38'0 0.0
2017-Oct-12 04:56N 37°56' E 023°38'0 0.0
2017-Oct-12 04:29N 37°56' E 023°38'0 0.0
2017-Oct-12 04:01N 37°56' E 023°38'1 1.6
2017-Oct-12 03:30N 37°56' E 023°37'1 2.4
2017-Oct-12 03:00N 37°55' E 023°37'713.1
2017-Oct-12 02:30N 37°49' E 023°40'  
2017-Oct-08 23:03N 44°06' E 014°02'220.2
2017-Oct-08 22:58N 44°07' E 014°01'920.3
2017-Oct-08 22:30N 44°15' E 013°54'1020.1
2017-Oct-08 22:01N 44°23' E 013°46'1019.9
2017-Oct-08 21:31N 44°31' E 013°38'1019.5
2017-Oct-08 21:01N 44°40' E 013°31'1019.9
2017-Oct-08 20:31N 44°48' E 013°23'1019.7
2017-Oct-08 20:01N 44°56' E 013°15'1019.9
2017-Oct-08 19:30N 45°03' E 013°04'1019.5
2017-Oct-08 19:01N 45°10' E 012°55'919.0
2017-Oct-08 18:31N 45°16' E 012°45'918.5
2017-Oct-08 18:01N 45°21' E 012°34'713.4
2017-Oct-08 17:30N 45°25' E 012°26'3 6.9
2017-Oct-08 17:00N 45°25' E 012°21'2 4.7
2017-Oct-08 16:30N 45°26' E 012°18'0 0.8
2017-Oct-08 15:58N 45°26' E 012°18'0 0.0
2017-Oct-08 15:28N 45°26' E 012°18'0 0.0
2017-Oct-08 14:58N 45°26' E 012°18'0 0.0
2017-Oct-08 14:28N 45°26' E 012°18'0 0.0
2017-Oct-08 13:58N 45°26' E 012°18'0 0.0
2017-Oct-08 13:28N 45°26' E 012°18'0 0.0
2017-Oct-08 12:58N 45°26' E 012°18'0 0.0
2017-Oct-08 12:28N 45°26' E 012°18'0 0.0
2017-Oct-08 11:58N 45°26' E 012°18'0 0.0
2017-Oct-08 11:28N 45°26' E 012°18'0 0.0
2017-Oct-08 10:58N 45°26' E 012°18'0 0.0
2017-Oct-08 10:28N 45°26' E 012°18'0 0.0
2017-Oct-08 09:58N 45°26' E 012°18'0 0.0
2017-Oct-08 09:28N 45°26' E 012°18'0 0.0
2017-Oct-08 08:58N 45°26' E 012°18'0 0.0
2017-Oct-08 08:28N 45°26' E 012°18'0 0.0
2017-Oct-08 07:58N 45°26' E 012°18'0 0.0
2017-Oct-08 07:28N 45°26' E 012°18'0 0.0
2017-Oct-08 06:58N 45°26' E 012°18'0 0.0
2017-Oct-08 06:28N 45°26' E 012°18'0 0.0
2017-Oct-08 05:58N 45°26' E 012°18'0 0.0
2017-Oct-08 05:28N 45°26' E 012°18'0 0.0
2017-Oct-08 04:59N 45°26' E 012°18'0 0.9
2017-Oct-08 04:30N 45°26' E 012°18'3 5.2
2017-Oct-08 04:00N 45°25' E 012°22'3 6.9
2017-Oct-08 03:31N 45°25' E 012°27'815.4
2017-Oct-08 03:00N 45°21' E 012°36'919.0
2017-Oct-08 02:30N 45°16' E 012°47'1020.1
2017-Oct-08 02:00N 45°09' E 012°58'1121.2
2017-Oct-08 01:30N 45°02' E 013°09'1121.4
2017-Oct-08 01:00N 44°55' E 013°21'1121.8
2017-Oct-08 00:30N 44°46' E 013°30'1121.6
2017-Oct-08 00:00N 44°37' E 013°38'1121.9
2017-Oct-07 23:30N 44°28' E 013°47'1122.2
2017-Oct-07 23:00N 44°19' E 013°55'  
Track history (hours):
 
Tides and Currents Weather Stations Pressure Air Temp Water Temp Dewpoint Dewpoint Depression Visibility Wind Speed Wind Dir Waves Ship Positions

Norwegian Star

Operator: Norwegian Cruise Line

Last reported at 2017-Oct-17 22:32 UTC. Time now 2017-Oct-18 09:16 UTC.
Position N 36°59' E 020°59'.

Type: Ship. MMSI: 311082000.

Date/timePositionNaut miles runAvg speedWind from/ knotsBaromVisibWave heightAir tempDewpointWater temp
2017-Oct-17 22:32N 36°59' E 020°59'120.0
2017-Oct-17 22:30N 36°60' E 020°59'1019.9
2017-Oct-17 22:01N 37°06' E 020°49'1020.4
2017-Oct-17 21:30N 37°14' E 020°42'1020.2
2017-Oct-17 21:01N 37°23' E 020°36'1020.4
2017-Oct-17 20:31N 37°32' E 020°30'1020.6
2017-Oct-17 20:01N 37°42' E 020°24'1020.3
2017-Oct-17 19:31N 37°51' E 020°20'1020.4
2017-Oct-17 19:00N 38°01' E 020°17'1020.3
2017-Oct-17 18:31N 38°11' E 020°14'1019.9
2017-Oct-17 18:00N 38°21' E 020°15'1019.8
2017-Oct-17 17:30N 38°31' E 020°16'1020.0
2017-Oct-17 17:01N 38°41' E 020°17'1020.0
2017-Oct-17 16:30N 38°51' E 020°17'57 5.3
2017-Oct-17 05:42N 39°47' E 019°59'316.3
2017-Oct-17 05:30N 39°50' E 019°58'1019.9
2017-Oct-17 05:00N 39°55' E 019°47'1121.6
2017-Oct-17 04:30N 40°02' E 019°37'1122.0
2017-Oct-17 04:01N 40°09' E 019°25'1121.8
2017-Oct-17 03:31N 40°17' E 019°16'1621.6
2017-Oct-17 02:46N 40°32' E 019°09'622.1
2017-Oct-17 02:30N 40°38' E 019°07'1121.9
2017-Oct-17 02:00N 40°48' E 019°03'1121.9
2017-Oct-17 01:31N 40°59' E 018°60'1322.0
2017-Oct-17 00:56N 41°11' E 018°56'1022.1
2017-Oct-17 00:30N 41°20' E 018°53'18510.0
2017-Oct-16 05:58N 43°02' E 015°24'3922.4
2017-Oct-16 04:13N 43°30' E 014°47'2122.0
2017-Oct-16 03:17N 43°46' E 014°28'821.8
2017-Oct-16 02:56N 43°51' E 014°20'1122.1
2017-Oct-16 02:27N 43°59' E 014°11'1022.4
2017-Oct-16 02:01N 44°06' E 014°01'1122.5
2017-Oct-16 01:30N 44°16' E 013°52'1122.3
2017-Oct-16 01:00N 44°25' E 013°44'1122.2
2017-Oct-16 00:30N 44°34' E 013°35'1122.3
2017-Oct-16 00:01N 44°44' E 013°28'1222.2
2017-Oct-15 23:28N 44°54' E 013°18'1022.1
2017-Oct-15 23:01N 45°01' E 013°08'1122.1
2017-Oct-15 22:30N 45°09' E 012°56'1122.0
2017-Oct-15 22:01N 45°16' E 012°45'1121.3
2017-Oct-15 21:30N 45°22' E 012°33'713.6
2017-Oct-15 21:00N 45°26' E 012°24'3 5.8
2017-Oct-15 20:30N 45°26' E 012°20'1 2.5
2017-Oct-15 20:00N 45°26' E 012°19'0 0.0
2017-Oct-15 19:30N 45°26' E 012°19'0 0.0
2017-Oct-15 19:00N 45°26' E 012°19'0 0.0
2017-Oct-15 18:30N 45°26' E 012°19'0 0.0
2017-Oct-15 18:00N 45°26' E 012°19'0 0.0
2017-Oct-15 17:30N 45°26' E 012°19'0 0.0
2017-Oct-15 16:57N 45°26' E 012°19'0 0.0
2017-Oct-15 16:30N 45°26' E 012°19'0 0.0
2017-Oct-15 16:00N 45°26' E 012°19'0 0.0
2017-Oct-15 15:30N 45°26' E 012°19'0 0.0
2017-Oct-15 15:00N 45°26' E 012°19'0 0.0
2017-Oct-15 14:00N 45°26' E 012°19'0 0.0
2017-Oct-15 13:30N 45°26' E 012°19'0 0.0
2017-Oct-15 13:00N 45°26' E 012°19'0 0.0
2017-Oct-15 12:30N 45°26' E 012°19'0 0.0
2017-Oct-15 12:00N 45°26' E 012°19'1 1.3
2017-Oct-15 11:30N 45°26' E 012°19'3 5.2
2017-Oct-15 11:00N 45°26' E 012°23'4 8.2
2017-Oct-15 10:30N 45°24' E 012°28'1 2.9
2017-Oct-15 10:00N 45°24' E 012°30'0 0.8
2017-Oct-15 09:30N 45°24' E 012°31'0 0.3
2017-Oct-15 08:59N 45°24' E 012°31'0 0.0
2017-Oct-15 08:30N 45°24' E 012°31'0 0.0
2017-Oct-15 08:00N 45°24' E 012°31'0 0.0
2017-Oct-15 07:30N 45°24' E 012°31'0 0.0
2017-Oct-15 07:00N 45°24' E 012°31'0 0.0
2017-Oct-15 06:30N 45°24' E 012°31'0 0.0
2017-Oct-15 06:00N 45°24' E 012°31'0 0.0
2017-Oct-15 05:29N 45°24' E 012°31'0 0.0
2017-Oct-15 04:59N 45°24' E 012°31'0 0.0
2017-Oct-15 04:30N 45°24' E 012°31'1 1.2
2017-Oct-15 04:00N 45°23' E 012°31'5 9.5
2017-Oct-15 03:30N 45°21' E 012°37'5 9.4
2017-Oct-15 03:00N 45°18' E 012°42'5 9.2
2017-Oct-15 02:30N 45°15' E 012°47'5 9.8
2017-Oct-15 02:00N 45°12' E 012°52'815.6
2017-Oct-15 01:30N 45°07' E 013°01'918.4
2017-Oct-15 01:00N 45°01' E 013°11'1018.8
2017-Oct-15 00:30N 44°55' E 013°22'918.4
2017-Oct-15 00:00N 44°48' E 013°28'918.6
2017-Oct-14 23:30N 44°40' E 013°36'918.7
2017-Oct-14 23:00N 44°32' E 013°43'918.6
2017-Oct-14 22:30N 44°25' E 013°51'918.5
2017-Oct-14 22:00N 44°18' E 013°59'918.7
2017-Oct-14 21:30N 44°10' E 014°07'918.1
2017-Oct-14 21:00N 44°04' E 014°16'918.5
2017-Oct-14 20:30N 43°59' E 014°27'918.5
2017-Oct-14 20:00N 43°55' E 014°38'918.6
2017-Oct-14 19:30N 43°50' E 014°50'1318.8
2017-Oct-14 18:49N 43°44' E 015°05'618.6
2017-Oct-14 18:30N 43°41' E 015°12'1118.5
2017-Oct-14 17:56N 43°36' E 015°25'220 9.0
2017-Oct-13 17:29N 40°42' E 018°26'19219.3
2017-Oct-13 07:32N 37°50' E 020°16'119.8
2017-Oct-13 07:30N 37°49' E 020°16'16511.4
2017-Oct-12 17:05N 37°17' E 023°40'216.6
2017-Oct-12 16:59N 37°19' E 023°41'816.9
2017-Oct-12 16:29N 37°27' E 023°41'817.1
2017-Oct-12 16:00N 37°36' E 023°42'816.7
2017-Oct-12 15:30N 37°44' E 023°40'816.4
2017-Oct-12 15:00N 37°51' E 023°37'510.2
2017-Oct-12 14:30N 37°56' E 023°38'0 0.5
2017-Oct-12 14:00N 37°56' E 023°38'0 0.0
2017-Oct-12 13:30N 37°56' E 023°38'0 0.0
2017-Oct-12 13:00N 37°56' E 023°38'0 0.0
2017-Oct-12 12:30N 37°56' E 023°38'0 0.0
2017-Oct-12 12:00N 37°56' E 023°38'0 0.0
2017-Oct-12 11:30N 37°56' E 023°38'0 0.0
2017-Oct-12 11:00N 37°56' E 023°38'0 0.0
2017-Oct-12 10:30N 37°56' E 023°38'0 0.0
2017-Oct-12 10:00N 37°56' E 023°38'0 0.0
2017-Oct-12 09:30N 37°56' E 023°38'0 0.0
2017-Oct-12 09:00N 37°56' E 023°38'0 0.0
2017-Oct-12 08:30N 37°56' E 023°38'0 0.0
2017-Oct-12 07:13N 37°56' E 023°38'0 0.1
2017-Oct-12 06:56N 37°56' E 023°38'0 0.0
2017-Oct-12 06:29N 37°56' E 023°38'0 0.0
2017-Oct-12 05:59N 37°56' E 023°38'0 0.0
2017-Oct-12 05:29N 37°56' E 023°38'0 0.0
2017-Oct-12 04:56N 37°56' E 023°38'0 0.0
2017-Oct-12 04:29N 37°56' E 023°38'0 0.0
2017-Oct-12 04:01N 37°56' E 023°38'1 1.6
2017-Oct-12 03:30N 37°56' E 023°37'1 2.4
2017-Oct-12 03:00N 37°55' E 023°37'713.1
2017-Oct-12 02:30N 37°49' E 023°40'  
2017-Oct-08 23:03N 44°06' E 014°02'220.2
2017-Oct-08 22:58N 44°07' E 014°01'920.3
2017-Oct-08 22:30N 44°15' E 013°54'1020.1
2017-Oct-08 22:01N 44°23' E 013°46'1019.9
2017-Oct-08 21:31N 44°31' E 013°38'1019.5
2017-Oct-08 21:01N 44°40' E 013°31'1019.9
2017-Oct-08 20:31N 44°48' E 013°23'1019.7
2017-Oct-08 20:01N 44°56' E 013°15'1019.9
2017-Oct-08 19:30N 45°03' E 013°04'1019.5
2017-Oct-08 19:01N 45°10' E 012°55'919.0
2017-Oct-08 18:31N 45°16' E 012°45'918.5
2017-Oct-08 18:01N 45°21' E 012°34'713.4
2017-Oct-08 17:30N 45°25' E 012°26'3 6.9
2017-Oct-08 17:00N 45°25' E 012°21'2 4.7
2017-Oct-08 16:30N 45°26' E 012°18'0 0.8
2017-Oct-08 15:58N 45°26' E 012°18'0 0.0
2017-Oct-08 15:28N 45°26' E 012°18'0 0.0
2017-Oct-08 14:58N 45°26' E 012°18'0 0.0
2017-Oct-08 14:28N 45°26' E 012°18'0 0.0
2017-Oct-08 13:58N 45°26' E 012°18'0 0.0
2017-Oct-08 13:28N 45°26' E 012°18'0 0.0
2017-Oct-08 12:58N 45°26' E 012°18'0 0.0
2017-Oct-08 12:28N 45°26' E 012°18'0 0.0
2017-Oct-08 11:58N 45°26' E 012°18'0 0.0
2017-Oct-08 11:28N 45°26' E 012°18'0 0.0
2017-Oct-08 10:58N 45°26' E 012°18'0 0.0
2017-Oct-08 10:28N 45°26' E 012°18'0 0.0
2017-Oct-08 09:58N 45°26' E 012°18'0 0.0
2017-Oct-08 09:28N 45°26' E 012°18'0 0.0
2017-Oct-08 08:58N 45°26' E 012°18'0 0.0
2017-Oct-08 08:28N 45°26' E 012°18'0 0.0
2017-Oct-08 07:58N 45°26' E 012°18'0 0.0
2017-Oct-08 07:28N 45°26' E 012°18'0 0.0
2017-Oct-08 06:58N 45°26' E 012°18'0 0.0
2017-Oct-08 06:28N 45°26' E 012°18'0 0.0
2017-Oct-08 05:58N 45°26' E 012°18'0 0.0
2017-Oct-08 05:28N 45°26' E 012°18'0 0.0
2017-Oct-08 04:59N 45°26' E 012°18'0 0.9
2017-Oct-08 04:30N 45°26' E 012°18'3 5.2
2017-Oct-08 04:00N 45°25' E 012°22'3 6.9
2017-Oct-08 03:31N 45°25' E 012°27'815.4
2017-Oct-08 03:00N 45°21' E 012°36'919.0
2017-Oct-08 02:30N 45°16' E 012°47'1020.1
2017-Oct-08 02:00N 45°09' E 012°58'1121.2
2017-Oct-08 01:30N 45°02' E 013°09'1121.4
2017-Oct-08 01:00N 44°55' E 013°21'1121.8
2017-Oct-08 00:30N 44°46' E 013°30'1121.6
2017-Oct-08 00:00N 44°37' E 013°38'1121.9
2017-Oct-07 23:30N 44°28' E 013°47'1122.2
2017-Oct-07 23:00N 44°19' E 013°55'  

Dump ship's entire track history